Flight Track Log - Related Links

Times and Time Zones

All times are in EDT time to prevent confusion due to time zone crossing. See the N9955V flight status page for this flight to view local times or setup timezone preferences in your user account.

Time Position Orientation Groundspeed Altitude Reporting Facility
EDT Latitude Longitude Course Direction KTS MPH feet Rate Location/Type
Thu 09:38:44 PM 26.6478 -80.6314 350° North 89 102 6,500  Level Miami Center
Thu 09:39:44 PM 26.6769 -80.6369 350° North 89 102 6,500  Level Miami Center
Thu 09:40:44 PM 26.6956 -80.6419 347° North 89 102 6,500 -50 Level Miami Center
Thu 09:41:44 PM 26.7244 -80.6500 346° North 89 102 6,400 -50 Descending Miami Center
Thu 09:42:44 PM 26.7475 -80.6531 353° North 89 102 6,400  Level Miami Center
Thu 09:43:44 PM 26.7725 -80.6586 349° North 89 102 6,400 50 Level Miami Center
Thu 09:44:44 PM 26.7953 -80.6617 353° North 89 102 6,500 50 Climbing Miami Center
Thu 09:45:44 PM 26.8222 -80.6672 350° North 89 102 6,500 50 Level Miami Center
Thu 09:46:44 PM 26.8450 -80.6725 348° North 89 102 6,600 50 Climbing Miami Center
Thu 09:47:44 PM 26.8722 -80.6758 354° North 89 102 6,600  Level Miami Center
Thu 09:48:44 PM 26.8992 -80.6836 346° North 89 102 6,600  Level Miami Center
Thu 09:49:44 PM 26.9178 -80.6867 352° North 89 102 6,600 -50 Level Miami Center
Thu 09:50:44 PM 26.9447 -80.6922 350° North 101 116 6,500 -50 Descending Miami Center
Thu 09:51:44 PM 26.9697 -80.6975 349° North 101 116 6,500  Level Miami Center
Thu 09:52:44 PM 26.9925 -80.7031 348° North 91 105 6,500 -50 Level Miami Center
Thu 09:53:44 PM 27.0133 -80.7083 347° North 85 98 6,400  Descending Miami Center
Thu 09:54:44 PM 27.0361 -80.7139 348° North 85 98 6,500 100 Climbing Miami Center
Thu 09:55:44 PM 27.0650 -80.7217 347° North 85 98 6,600 50 Climbing Miami Center
Thu 09:56:44 PM 27.0900 -80.7247 354° North 85 98 6,600  Level Miami Center
Thu 09:57:44 PM 27.1150 -80.7303 349° North 85 98 6,600  Level Miami Center
Thu 09:58:44 PM 27.1400 -80.7358 349° North 85 98 6,600  Level Miami Center
Thu 09:59:44 PM 27.1669 -80.7414 350° North 85 98 6,600  Level Miami Center
Thu 10:00:44 PM 27.1961 -80.7447 354° North 90 104 6,600  Level Miami Center
Thu 10:01:44 PM 27.2231 -80.7503 350° North 90 104 6,600 -50 Level Miami Center
Thu 10:02:44 PM 27.2458 -80.7558 348° North 90 104 6,500 -50 Descending Miami Center
Thu 10:03:44 PM 27.2708 -80.7614 349° North 90 104 6,500  Level Miami Center
Thu 10:04:44 PM 27.2997 -80.7669 350° North 85 98 6,500  Level Miami Center
Thu 10:05:44 PM 27.3247 -80.7700 354° North 85 98 6,500  Level Miami Center
Thu 10:06:48 PM 27.3497 -80.7756 349° North 85 98 6,500  Level Miami Center
Thu 10:07:46 PM 27.3767 -80.7836 345° North 85 98 6,500  Level Miami Center
Thu 10:08:44 PM 27.4036 -80.7892 350° North 85 98 6,500  Level Miami Center
Thu 10:09:45 PM 27.4286 -80.7947 349° North 85 98 6,500  Level Miami Center
Thu 10:10:47 PM 27.4533 -80.8025 344° North 85 98 6,500  Level Miami Center
Thu 10:11:44 PM 27.4803 -80.8081 350° North 85 98 6,500  Level Miami Center
Thu 10:12:44 PM 27.5053 -80.8161 344° North 85 98 6,500 50 Level Miami Center
Thu 10:13:45 PM 27.5322 -80.8194 354° North 85 98 6,600 50 Climbing Miami Center
Thu 10:14:45 PM 27.5592 -80.8272 346° North 85 98 6,600  Level Miami Center
Thu 10:15:45 PM 27.5861 -80.8306 354° North 85 98 6,600  Level Miami Center
Thu 10:16:46 PM 27.6131 -80.8361 350° North 85 98 6,600  Level Miami Center
Thu 10:17:44 PM 27.6403 -80.8417 350° North 90 104 6,600 -50 Level Miami Center
Thu 10:18:47 PM 27.6631 -80.8450 353° North 90 104 6,500  Descending Miami Center
Thu 10:19:46 PM 27.6922 -80.8506 350° North 90 104 6,600 51 Climbing Miami Center
Thu 10:20:45 PM 27.7211 -80.8564 350° North 96 110 6,600 -50 Level Miami Center
Thu 10:21:45 PM 27.7461 -80.8619 349° North 96 110 6,500 -50 Descending Miami Center
Thu 10:22:45 PM 27.7750 -80.8678 350° North 96 110 6,500  Level Miami Center
Thu 10:23:44 PM 27.7981 -80.8708 353° North 96 110 6,500  Level Miami Center
Thu 10:25:22 PM 27.8500 -80.8833 348° North 98 113 6,500  Level Orlando TRACON
Thu 10:26:28 PM 27.8833 -80.8833 360° North 96 110 6,500  Level Orlando TRACON
Thu 10:27:28 PM 27.9000 -80.9000 319° Northwest 100 115 6,500  Level Orlando TRACON
Thu 10:28:28 PM 27.9333 -80.9000 360° North 99 114 6,500  Level Orlando TRACON
Thu 10:29:28 PM 27.9500 -80.9000 360° North 98 113 6,500  Level Orlando TRACON
Thu 10:30:28 PM 27.9833 -80.9167 336° Northwest 99 114 6,500  Level Orlando TRACON
Thu 10:31:22 PM 28.0167 -80.9167 360° North 100 115 6,500  Level Orlando TRACON
Thu 10:32:22 PM 28.0333 -80.9167 360° North 99 114 6,500  Level Orlando TRACON
Thu 10:33:22 PM 28.0667 -80.9333 336° Northwest 98 113 6,500  Level Orlando TRACON
Thu 10:34:22 PM 28.0833 -80.9333 360° North 99 114 6,500  Level Orlando TRACON
Thu 10:35:22 PM 28.1167 -80.9333 360° North 101 116 6,500  Level Orlando TRACON
Thu 10:36:17 PM 28.1500 -80.9333 360° North 100 115 6,500 -50 Level Orlando TRACON
Thu 10:37:23 PM 28.1667 -80.9500 319° Northwest 101 116 6,400 -95 Descending Orlando TRACON
Thu 10:38:23 PM 28.2000 -80.9500 360° North 100 115 6,300  Descending Orlando TRACON
Thu 10:39:17 PM 28.2167 -80.9667 319° Northwest 98 113 6,400 50 Climbing Orlando TRACON
Thu 10:40:23 PM 28.2500 -80.9667 360° North 94 108 6,400 48 Level Orlando TRACON
Thu 10:41:23 PM 28.2833 -80.9667 360° North 95 109 6,500 100 Climbing Orlando TRACON
Thu 10:42:23 PM 28.3000 -80.9833 319° Northwest 98 113 6,600 50 Climbing Orlando TRACON
Thu 10:43:23 PM 28.3333 -80.9833 360° North 101 116 6,600  Level Orlando TRACON
Thu 10:44:23 PM 28.3667 -81.0000 336° Northwest 103 119 6,600  Level Orlando TRACON
Thu 10:45:23 PM 28.3833 -81.0000 360° North 102 117 6,600  Level Orlando TRACON
Thu 10:46:23 PM 28.4167 -81.0000 360° North 106 122 6,600 -50 Level Orlando TRACON
Thu 10:47:23 PM 28.4500 -81.0167 336° Northwest 107 123 6,500 -50 Descending Orlando TRACON
Thu 10:48:23 PM 28.4833 -81.0167 360° North 107 123 6,500 50 Level Orlando TRACON
Thu 10:49:23 PM 28.5000 -81.0167 360° North 106 122 6,600  Climbing Orlando TRACON
Thu 10:50:17 PM 28.5333 -81.0333 336° Northwest 107 123 6,500 -53 Descending Orlando TRACON
Thu 10:51:17 PM 28.5667 -81.0333 360° North 106 122 6,500  Level Orlando TRACON
Thu 10:52:17 PM 28.5833 -81.0333 360° North 107 123 6,500  Level Orlando TRACON
Thu 10:53:17 PM 28.6167 -81.0500 336° Northwest 102 117 6,500 -50 Level Orlando TRACON
Thu 10:54:17 PM 28.6500 -81.0500 360° North 99 114 6,400 -53 Descending Orlando TRACON
Thu 10:55:11 PM 28.6667 -81.0500 360° North 101 116 6,400  Level Orlando TRACON
Thu 10:56:48 PM 28.7108 -81.0675 341° North 102 117 6,400  Level Jacksonville Center
Thu 10:57:48 PM 28.7381 -81.0789 340° North 100 115 6,400  Level Jacksonville Center
Thu 10:58:49 PM 28.7656 -81.0903 340° North 96 110 6,400 49 Level Jacksonville Center
Thu 10:59:50 PM 28.7906 -81.0992 343° North 96 110 6,500 50 Climbing Jacksonville Center
Thu 11:00:50 PM 28.8178 -81.1011 356° North 98 113 6,500  Level Jacksonville Center
Thu 11:01:51 PM 28.8450 -81.1006 North 97 112 6,500  Level Jacksonville Center
Thu 11:02:51 PM 28.8719 -81.1050 352° North 97 112 6,500 50 Level Jacksonville Center
Thu 11:03:52 PM 28.8992 -81.1114 348° North 97 112 6,600 49 Climbing Jacksonville Center
Thu 11:04:53 PM 28.9286 -81.1158 352° North 98 113 6,600 -47 Level Jacksonville Center
Thu 11:05:59 PM 28.9558 -81.1200 352° North 98 113 6,500 -50 Descending Jacksonville Center
Thu 11:06:54 PM 28.9808 -81.1242 352° North 98 113 6,500  Level Jacksonville Center
Thu 11:07:55 PM 29.0081 -81.1286 352° North 98 113 6,500  Level Jacksonville Center
Thu 11:08:55 PM 29.0331 -81.1328 352° North 95 109 6,500 50 Level Jacksonville Center
Thu 11:09:56 PM 29.0583 -81.1394 347° North 90 104 6,600 50 Climbing Jacksonville Center
Thu 11:10:56 PM 29.0833 -81.1439 351° North 93 107 6,600  Level Jacksonville Center
Thu 11:11:57 PM 29.1106 -81.1481 352° North 91 105 6,600 -52 Level Jacksonville Center
Thu 11:12:51 PM 29.1336 -81.1547 346° North 93 107 6,500  Descending Jacksonville Center
Thu 11:13:52 PM 29.1589 -81.1592 351° North 92 106 6,600 47 Climbing Jacksonville Center
Thu 11:14:59 PM 29.1861 -81.1681 344° North 95 109 6,600 -47 Level Jacksonville Center
Thu 11:15:59 PM 29.2133 -81.1772 344° North 93 107 6,500 -52 Descending Jacksonville Center
Thu 11:16:54 PM 29.2342 -81.1817 349° North 94 108 6,500 52 Level Jacksonville Center
Thu 11:17:55 PM 29.2636 -81.1883 349° North 95 109 6,600 52 Climbing Jacksonville Center
Thu 11:18:49 PM 29.2844 -81.1903 355° North 95 109 6,600 -52 Level Jacksonville Center
Thu 11:19:50 PM 29.3139 -81.1992 345° North 96 110 6,500 -50 Descending Jacksonville Center
Thu 11:20:50 PM 29.3367 -81.2036 350° North 97 112 6,500 -50 Level Jacksonville Center
Thu 11:21:51 PM 29.3639 -81.2103 348° North 96 110 6,400  Descending Jacksonville Center
Thu 11:22:52 PM 29.3892 -81.2169 347° North 91 105 6,500 53 Climbing Jacksonville Center
Thu 11:23:45 PM 29.4100 -81.2192 355° North 91 105 6,500  Level Jacksonville Center
Thu 11:24:28 PM 29.4289 -81.2236 348° North 92 106 6,500  Level Jacksonville Center
Thu 11:25:28 PM 29.4561 -81.2303 348° North 96 110 6,500 -50 Level Jacksonville Center
Thu 11:26:29 PM 29.4811 -81.2344 352° North 98 113 6,400 -47 Descending Jacksonville Center
Thu 11:27:35 PM 29.5125 -81.2411 350° North 98 113 6,400  Level Jacksonville Center
Thu 11:28:36 PM 29.5378 -81.2478 347° North 92 106 6,400 49 Level Jacksonville Center
Thu 11:29:37 PM 29.5631 -81.2569 342° North 93 107 6,500 50 Climbing Jacksonville Center
Thu 11:30:37 PM 29.5903 -81.2636 348° North 96 110 6,500 -50 Level Jacksonville Center
Thu 11:31:38 PM 29.6175 -81.2706 347° North 94 108 6,400 -148 Descending Jacksonville Center
Thu 11:32:39 PM 29.6425 -81.2725 356° North 95 109 6,200 -298 Descending Jacksonville Center
Thu 11:33:39 PM 29.6675 -81.2744 356° North 87 100 5,800 -545 Descending Jacksonville Center
Thu 11:34:40 PM 29.6906 -81.2811 346° North 89 102 5,100 -689 Descending Jacksonville Center
Thu 11:35:41 PM 29.7178 -81.2831 356° North 97 112 4,400 -694 Descending Jacksonville Center
Thu 11:36:41 PM 29.7447 -81.2803 North 94 108 3,700 -645 Descending Jacksonville Center
Thu 11:37:42 PM 29.7697 -81.2775 North 90 104 3,100 -590 Descending Jacksonville Center

Login

Don't have an account? Register now (free) for customized features, flight alerts, and more!